RYR19KL GCLP-LEVC
Flight info
| Callsign | RYR19KL |
|---|---|
| Flight time | 2h 24m |
| Altitude | 38000 |
| Route | KORAL UG5 SONSO DCT NIRAL UN871 OSDAM UM985 BARPA DCT XAVIR DCT PIMOS DCT RIXUR DCT PEPAS DCT ARPEX DCT KOSEL DCT BUDIT DCT ETURA DCT XEBAR DCT POBOS DCT ASTRO |
| Aircraft | B38M/M-SADE3FGILRWY/SB1 |
Departure
| Time | 2026-04-27 15:23 |
|---|---|
| Airport | Gran Canaria Airport (GCLP) |
Arrival
| Time | 2026-04-27 17:48 |
|---|---|
| Airport | Valencia Airport (LEVC) |
| Time | Latitude | Longitude | Altitude | Speed | Heading |
|---|---|---|---|---|---|
| 2026-04-27 14:58 | 27.93690 | -15.38888 | 52 ft | 0 kts | 289° |
| 2026-04-27 15:14 | 27.93684 | -15.38869 | 52 ft | 4 kts | 291° |
| 2026-04-27 15:15 | 27.93675 | -15.38845 | 50 ft | 1 kts | 292° |
| 2026-04-27 15:15 | 27.93670 | -15.38819 | 52 ft | 4 kts | 262° |
| 2026-04-27 15:15 | 27.93682 | -15.38799 | 49 ft | 4 kts | 206° |
| 2026-04-27 15:15 | 27.93701 | -15.38790 | 52 ft | 0 kts | 200° |
| 2026-04-27 15:17 | 27.93692 | -15.38794 | 51 ft | 2 kts | 200° |
| 2026-04-27 15:17 | 27.93673 | -15.38801 | 52 ft | 4 kts | 200° |
| 2026-04-27 15:18 | 27.93645 | -15.38813 | 50 ft | 5 kts | 200° |
| 2026-04-27 15:18 | 27.93608 | -15.38829 | 50 ft | 6 kts | 200° |
| 2026-04-27 15:18 | 27.93564 | -15.38848 | 51 ft | 7 kts | 205° |
| 2026-04-27 15:18 | 27.93510 | -15.38870 | 53 ft | 12 kts | 198° |
| 2026-04-27 15:19 | 27.93394 | -15.38914 | 55 ft | 24 kts | 200° |
| 2026-04-27 15:19 | 27.93207 | -15.38996 | 57 ft | 34 kts | 201° |
| 2026-04-27 15:19 | 27.92993 | -15.39091 | 60 ft | 30 kts | 201° |
| 2026-04-27 15:19 | 27.92828 | -15.39166 | 60 ft | 25 kts | 204° |
| 2026-04-27 15:20 | 27.92696 | -15.39284 | 65 ft | 24 kts | 218° |
| 2026-04-27 15:20 | 27.92548 | -15.39334 | 67 ft | 22 kts | 185° |
| 2026-04-27 15:20 | 27.92454 | -15.39291 | 70 ft | 12 kts | 125° |
| 2026-04-27 15:20 | 27.92405 | -15.39216 | 69 ft | 12 kts | 165° |
| 2026-04-27 15:21 | 27.92319 | -15.39242 | 68 ft | 15 kts | 202° |
| 2026-04-27 15:21 | 27.92199 | -15.39296 | 69 ft | 23 kts | 200° |
| 2026-04-27 15:21 | 27.92021 | -15.39375 | 71 ft | 32 kts | 201° |
| 2026-04-27 15:21 | 27.91908 | -15.39410 | 80 ft | 16 kts | 163° |
| 2026-04-27 15:22 | 27.91838 | -15.39271 | 81 ft | 26 kts | 111° |
| 2026-04-27 15:22 | 27.91786 | -15.39072 | 81 ft | 24 kts | 70° |
| 2026-04-27 15:22 | 27.91984 | -15.38963 | 70 ft | 55 kts | 21° |
| 2026-04-27 15:22 | 27.92551 | -15.38713 | 69 ft | 117 kts | 21° |
| 2026-04-27 15:23 | 27.93425 | -15.38336 | 257 ft | 146 kts | 21° |
| 2026-04-27 15:23 | 27.94356 | -15.37904 | 987 ft | 145 kts | 20° |
| 2026-04-27 15:23 | 27.95348 | -15.37458 | 1424 ft | 165 kts | 18° |
| 2026-04-27 15:23 | 27.96510 | -15.36993 | 1843 ft | 187 kts | 17° |
| 2026-04-27 15:24 | 27.97796 | -15.36481 | 2442 ft | 205 kts | 18° |
| 2026-04-27 15:24 | 27.99203 | -15.35914 | 3010 ft | 225 kts | 18° |
| 2026-04-27 15:24 | 28.00741 | -15.35290 | 3586 ft | 244 kts | 18° |
| 2026-04-27 15:24 | 28.02381 | -15.34626 | 3903 ft | 253 kts | 18° |
| 2026-04-27 15:25 | 28.04025 | -15.33950 | 4246 ft | 255 kts | 19° |
| 2026-04-27 15:25 | 28.05677 | -15.33232 | 5222 ft | 257 kts | 19° |
| 2026-04-27 15:25 | 28.07377 | -15.32493 | 6001 ft | 265 kts | 19° |
| 2026-04-27 15:25 | 28.09104 | -15.31745 | 6856 ft | 269 kts | 19° |
| 2026-04-27 15:26 | 28.10858 | -15.30985 | 7688 ft | 270 kts | 19° |
| 2026-04-27 15:26 | 28.12619 | -15.30221 | 8429 ft | 273 kts | 20° |
| 2026-04-27 15:26 | 28.14252 | -15.29122 | 9195 ft | 276 kts | 42° |
| 2026-04-27 15:26 | 28.15447 | -15.27381 | 9796 ft | 285 kts | 53° |
| 2026-04-27 15:27 | 28.16560 | -15.25535 | 10327 ft | 291 kts | 53° |
| 2026-04-27 15:27 | 28.17728 | -15.23576 | 10520 ft | 309 kts | 54° |
| 2026-04-27 15:27 | 28.18954 | -15.21500 | 10765 ft | 323 kts | 54° |
| 2026-04-27 15:27 | 28.20206 | -15.19363 | 11247 ft | 326 kts | 54° |
| 2026-04-27 15:28 | 28.21468 | -15.17205 | 11686 ft | 331 kts | 54° |
| 2026-04-27 15:28 | 28.22745 | -15.15018 | 12146 ft | 334 kts | 53° |
| 2026-04-27 15:28 | 28.24033 | -15.12812 | 12557 ft | 337 kts | 54° |
| 2026-04-27 15:28 | 28.25332 | -15.10584 | 12947 ft | 340 kts | 54° |
| 2026-04-27 15:29 | 28.26642 | -15.08335 | 13343 ft | 343 kts | 54° |
| 2026-04-27 15:29 | 28.27964 | -15.06065 | 13724 ft | 346 kts | 54° |
| 2026-04-27 15:29 | 28.29277 | -15.03811 | 14058 ft | 348 kts | 54° |
| 2026-04-27 15:29 | 28.30613 | -15.01514 | 14403 ft | 350 kts | 54° |
| 2026-04-27 15:30 | 28.31959 | -14.99203 | 14734 ft | 352 kts | 54° |
| 2026-04-27 15:30 | 28.33311 | -14.96875 | 15157 ft | 354 kts | 54° |
| 2026-04-27 15:30 | 28.34668 | -14.94540 | 15783 ft | 356 kts | 54° |
| 2026-04-27 15:30 | 28.36038 | -14.92180 | 16303 ft | 360 kts | 54° |
| 2026-04-27 15:31 | 28.37423 | -14.89793 | 16847 ft | 363 kts | 54° |
| 2026-04-27 15:31 | 28.38820 | -14.87386 | 17352 ft | 367 kts | 54° |
| 2026-04-27 15:31 | 28.40228 | -14.84957 | 17866 ft | 369 kts | 54° |
| 2026-04-27 15:31 | 28.41628 | -14.82541 | 18345 ft | 373 kts | 54° |
| 2026-04-27 15:32 | 28.43059 | -14.80070 | 18776 ft | 375 kts | 54° |
| 2026-04-27 15:32 | 28.44495 | -14.77588 | 19208 ft | 377 kts | 54° |
| 2026-04-27 15:32 | 28.45937 | -14.75094 | 19640 ft | 378 kts | 54° |
| 2026-04-27 15:32 | 28.47386 | -14.72587 | 20065 ft | 380 kts | 54° |
| 2026-04-27 15:33 | 28.48840 | -14.70070 | 20477 ft | 382 kts | 54° |
| 2026-04-27 15:33 | 28.50302 | -14.67539 | 20889 ft | 384 kts | 54° |
| 2026-04-27 15:33 | 28.51769 | -14.64995 | 21284 ft | 386 kts | 54° |
| 2026-04-27 15:33 | 28.53223 | -14.62475 | 21665 ft | 387 kts | 54° |
| 2026-04-27 15:34 | 28.54704 | -14.59904 | 22032 ft | 389 kts | 54° |
| 2026-04-27 15:34 | 28.56190 | -14.57325 | 22407 ft | 391 kts | 54° |
| 2026-04-27 15:34 | 28.57681 | -14.54733 | 22749 ft | 393 kts | 54° |
| 2026-04-27 15:34 | 28.59183 | -14.52123 | 23072 ft | 395 kts | 54° |
| 2026-04-27 15:35 | 28.60691 | -14.49500 | 23411 ft | 397 kts | 55° |
| 2026-04-27 15:35 | 28.62203 | -14.46867 | 23711 ft | 398 kts | 54° |
| 2026-04-27 15:35 | 28.63721 | -14.44224 | 23976 ft | 400 kts | 55° |
| 2026-04-27 15:35 | 28.65224 | -14.41605 | 24235 ft | 401 kts | 54° |
| 2026-04-27 15:36 | 28.66752 | -14.38940 | 24486 ft | 403 kts | 54° |
| 2026-04-27 15:36 | 28.68284 | -14.36267 | 24735 ft | 404 kts | 54° |
| 2026-04-27 15:36 | 28.69821 | -14.33583 | 24975 ft | 405 kts | 54° |
| 2026-04-27 15:36 | 28.71365 | -14.30885 | 25208 ft | 407 kts | 54° |
| 2026-04-27 15:37 | 28.72912 | -14.28182 | 25436 ft | 408 kts | 54° |
| 2026-04-27 15:37 | 28.74463 | -14.25468 | 25662 ft | 409 kts | 54° |
| 2026-04-27 15:37 | 28.76021 | -14.22740 | 25896 ft | 411 kts | 54° |
| 2026-04-27 15:37 | 28.77582 | -14.20008 | 26177 ft | 412 kts | 54° |
| 2026-04-27 15:38 | 28.79123 | -14.17304 | 26465 ft | 412 kts | 54° |
| 2026-04-27 15:38 | 28.80689 | -14.14557 | 26688 ft | 414 kts | 54° |
| 2026-04-27 15:38 | 28.82260 | -14.11801 | 26919 ft | 415 kts | 54° |
| 2026-04-27 15:38 | 28.83836 | -14.09033 | 27141 ft | 417 kts | 54° |
| 2026-04-27 15:39 | 28.85415 | -14.06258 | 27353 ft | 418 kts | 54° |
| 2026-04-27 15:39 | 28.86998 | -14.03473 | 27559 ft | 419 kts | 54° |
| 2026-04-27 15:39 | 28.88586 | -14.00679 | 27756 ft | 420 kts | 54° |
| 2026-04-27 15:39 | 28.90179 | -13.97875 | 27941 ft | 421 kts | 54° |
| 2026-04-27 15:40 | 28.91753 | -13.95101 | 28125 ft | 422 kts | 54° |
| 2026-04-27 15:40 | 28.93351 | -13.92282 | 28295 ft | 424 kts | 54° |
| 2026-04-27 15:40 | 28.94953 | -13.89455 | 28480 ft | 424 kts | 54° |
| 2026-04-27 15:40 | 28.96557 | -13.86623 | 28635 ft | 425 kts | 54° |
| 2026-04-27 15:41 | 28.98164 | -13.83785 | 28822 ft | 426 kts | 54° |
| 2026-04-27 15:41 | 28.99768 | -13.80948 | 29067 ft | 424 kts | 54° |
| 2026-04-27 15:41 | 29.01371 | -13.78112 | 29201 ft | 426 kts | 54° |
| 2026-04-27 15:41 | 29.02976 | -13.75270 | 29342 ft | 426 kts | 54° |
| 2026-04-27 15:42 | 29.04586 | -13.72418 | 29481 ft | 427 kts | 54° |
| 2026-04-27 15:42 | 29.06175 | -13.69601 | 29603 ft | 428 kts | 54° |
| 2026-04-27 15:42 | 29.07788 | -13.66740 | 29741 ft | 429 kts | 54° |
| 2026-04-27 15:42 | 29.09403 | -13.63873 | 29866 ft | 429 kts | 54° |
| 2026-04-27 15:43 | 29.11020 | -13.61001 | 29984 ft | 430 kts | 54° |
| 2026-04-27 15:43 | 29.12639 | -13.58124 | 30074 ft | 431 kts | 54° |
| 2026-04-27 15:43 | 29.15892 | -13.52338 | 30145 ft | 435 kts | 54° |
| 2026-04-27 15:44 | 29.17613 | -13.49502 | 30277 ft | 434 kts | 52° |
| 2026-04-27 15:44 | 29.19333 | -13.46717 | 30365 ft | 434 kts | 52° |
| 2026-04-27 15:44 | 29.21068 | -13.43889 | 30484 ft | 434 kts | 52° |
| 2026-04-27 15:44 | 29.22801 | -13.41055 | 30528 ft | 435 kts | 52° |
| 2026-04-27 15:45 | 29.26277 | -13.35363 | 30689 ft | 437 kts | 52° |
| 2026-04-27 15:45 | 29.29761 | -13.29649 | 30834 ft | 438 kts | 52° |
| 2026-04-27 15:46 | 29.33257 | -13.23909 | 30992 ft | 440 kts | 52° |
| 2026-04-27 15:46 | 29.36738 | -13.18183 | 31143 ft | 442 kts | 52° |
| 2026-04-27 15:47 | 29.40253 | -13.12393 | 31313 ft | 443 kts | 52° |
| 2026-04-27 15:47 | 29.43783 | -13.06573 | 31493 ft | 445 kts | 53° |
| 2026-04-27 15:48 | 29.47320 | -13.00731 | 31672 ft | 447 kts | 53° |
| 2026-04-27 15:48 | 29.49092 | -12.97800 | 31786 ft | 447 kts | 53° |
| 2026-04-27 15:49 | 29.52618 | -12.91965 | 31977 ft | 449 kts | 53° |
| 2026-04-27 15:49 | 29.54400 | -12.89012 | 32079 ft | 450 kts | 53° |
| 2026-04-27 15:49 | 29.56189 | -12.86047 | 32313 ft | 452 kts | 53° |
| 2026-04-27 15:49 | 29.57982 | -12.83073 | 32594 ft | 454 kts | 53° |
| 2026-04-27 15:50 | 29.59783 | -12.80080 | 32825 ft | 457 kts | 53° |
| 2026-04-27 15:50 | 29.61594 | -12.77072 | 33160 ft | 458 kts | 53° |
| 2026-04-27 15:50 | 29.63404 | -12.74061 | 33472 ft | 458 kts | 53° |
| 2026-04-27 15:50 | 29.65194 | -12.71083 | 33761 ft | 459 kts | 53° |
| 2026-04-27 15:51 | 29.67011 | -12.68057 | 34081 ft | 460 kts | 53° |
| 2026-04-27 15:51 | 29.68827 | -12.65031 | 34338 ft | 461 kts | 53° |
| 2026-04-27 15:51 | 29.70647 | -12.61998 | 34598 ft | 461 kts | 53° |
| 2026-04-27 15:51 | 29.72469 | -12.58957 | 34858 ft | 462 kts | 54° |
| 2026-04-27 15:52 | 29.74278 | -12.55904 | 35105 ft | 462 kts | 54° |
| 2026-04-27 15:52 | 29.76090 | -12.52844 | 35345 ft | 463 kts | 54° |
| 2026-04-27 15:52 | 29.77902 | -12.49783 | 35585 ft | 463 kts | 54° |
| 2026-04-27 15:52 | 29.79694 | -12.46755 | 35805 ft | 464 kts | 54° |
| 2026-04-27 15:53 | 29.81511 | -12.43681 | 36049 ft | 464 kts | 54° |
| 2026-04-27 15:53 | 29.83324 | -12.40612 | 36346 ft | 463 kts | 54° |
| 2026-04-27 15:53 | 29.85136 | -12.37543 | 36568 ft | 464 kts | 54° |
| 2026-04-27 15:53 | 29.86951 | -12.34467 | 36769 ft | 464 kts | 54° |
| 2026-04-27 15:54 | 29.88764 | -12.31391 | 36975 ft | 465 kts | 54° |
| 2026-04-27 15:54 | 29.90580 | -12.28309 | 37188 ft | 465 kts | 54° |
| 2026-04-27 15:54 | 29.92395 | -12.25225 | 37393 ft | 465 kts | 54° |
| 2026-04-27 15:54 | 29.94186 | -12.22180 | 37583 ft | 465 kts | 54° |
| 2026-04-27 15:55 | 29.95999 | -12.19095 | 37773 ft | 465 kts | 54° |
| 2026-04-27 15:55 | 29.97227 | -12.17004 | 37898 ft | 466 kts | 54° |
| 2026-04-27 15:55 | 29.99633 | -12.12906 | 37983 ft | 467 kts | 54° |
| 2026-04-27 15:56 | 30.03841 | -12.07327 | 37994 ft | 460 kts | 42° |
| 2026-04-27 15:56 | 30.08433 | -12.02145 | 37968 ft | 461 kts | 42° |
| 2026-04-27 15:57 | 30.13012 | -11.97013 | 37965 ft | 462 kts | 42° |
| 2026-04-27 15:57 | 30.17621 | -11.91847 | 37968 ft | 462 kts | 42° |
| 2026-04-27 15:58 | 30.22229 | -11.86674 | 37953 ft | 462 kts | 42° |
| 2026-04-27 15:58 | 30.26836 | -11.81497 | 37959 ft | 462 kts | 42° |
| 2026-04-27 15:59 | 30.31410 | -11.76349 | 37959 ft | 462 kts | 42° |
| 2026-04-27 15:59 | 30.36012 | -11.71163 | 37951 ft | 462 kts | 42° |
| 2026-04-27 16:00 | 30.40614 | -11.65968 | 37951 ft | 462 kts | 42° |
| 2026-04-27 16:00 | 30.45213 | -11.60770 | 37966 ft | 462 kts | 42° |
| 2026-04-27 16:01 | 30.49769 | -11.55615 | 37947 ft | 460 kts | 43° |
| 2026-04-27 16:01 | 30.54348 | -11.50425 | 37946 ft | 460 kts | 43° |
| 2026-04-27 16:02 | 30.58925 | -11.45230 | 37945 ft | 460 kts | 43° |
| 2026-04-27 16:02 | 30.63500 | -11.40031 | 37945 ft | 460 kts | 43° |
| 2026-04-27 16:03 | 30.68044 | -11.34861 | 37945 ft | 460 kts | 43° |
| 2026-04-27 16:03 | 30.72614 | -11.29651 | 37936 ft | 461 kts | 43° |
| 2026-04-27 16:04 | 30.77193 | -11.24427 | 37943 ft | 461 kts | 43° |
| 2026-04-27 16:04 | 30.80989 | -11.20090 | 37935 ft | 460 kts | 43° |
| 2026-04-27 16:05 | 30.85552 | -11.14869 | 37933 ft | 460 kts | 43° |
| 2026-04-27 16:05 | 30.90854 | -11.08792 | 37931 ft | 460 kts | 43° |
| 2026-04-27 16:06 | 30.95412 | -11.03560 | 37938 ft | 460 kts | 43° |
| 2026-04-27 16:06 | 30.99200 | -10.99209 | 37932 ft | 460 kts | 43° |
| 2026-04-27 16:07 | 31.03753 | -10.93968 | 37934 ft | 460 kts | 43° |
| 2026-04-27 16:07 | 31.09045 | -10.87870 | 37932 ft | 459 kts | 43° |
| 2026-04-27 16:08 | 31.12818 | -10.83517 | 37922 ft | 459 kts | 43° |
| 2026-04-27 16:08 | 31.17354 | -10.78276 | 37921 ft | 459 kts | 43° |
| 2026-04-27 16:09 | 31.21887 | -10.73029 | 37917 ft | 459 kts | 43° |
| 2026-04-27 16:09 | 31.28688 | -10.65145 | 37921 ft | 459 kts | 43° |
| 2026-04-27 16:10 | 31.37716 | -10.54652 | 37918 ft | 459 kts | 44° |
| 2026-04-27 16:11 | 31.44503 | -10.46745 | 37915 ft | 459 kts | 44° |
| 2026-04-27 16:12 | 31.51257 | -10.38859 | 37911 ft | 459 kts | 44° |
| 2026-04-27 16:13 | 31.58033 | -10.30930 | 37908 ft | 459 kts | 44° |
| 2026-04-27 16:13 | 31.64805 | -10.22988 | 37909 ft | 459 kts | 44° |
| 2026-04-27 16:14 | 31.73792 | -10.12421 | 37901 ft | 459 kts | 45° |
| 2026-04-27 16:15 | 31.82798 | -10.01802 | 37898 ft | 459 kts | 45° |
| 2026-04-27 16:16 | 31.91772 | -9.91190 | 37899 ft | 458 kts | 45° |
| 2026-04-27 16:17 | 32.00764 | -9.80523 | 37905 ft | 458 kts | 46° |
| 2026-04-27 16:18 | 32.09683 | -9.69914 | 37889 ft | 457 kts | 46° |
| 2026-04-27 16:19 | 32.14153 | -9.64585 | 37895 ft | 457 kts | 46° |
| 2026-04-27 16:20 | 32.23054 | -9.53949 | 37890 ft | 457 kts | 46° |
| 2026-04-27 16:21 | 32.29748 | -9.45929 | 37863 ft | 458 kts | 46° |
| 2026-04-27 16:22 | 32.38696 | -9.35182 | 37882 ft | 458 kts | 47° |
| 2026-04-27 16:22 | 32.45370 | -9.27145 | 37881 ft | 458 kts | 47° |
| 2026-04-27 16:23 | 32.52067 | -9.19063 | 37867 ft | 458 kts | 47° |
| 2026-04-27 16:24 | 32.56528 | -9.13667 | 37887 ft | 458 kts | 47° |
| 2026-04-27 16:25 | 32.65449 | -9.02854 | 37870 ft | 463 kts | 47° |
| 2026-04-27 16:26 | 32.74444 | -8.91920 | 37862 ft | 462 kts | 47° |
| 2026-04-27 16:27 | 32.83391 | -8.81009 | 37847 ft | 462 kts | 47° |
| 2026-04-27 16:28 | 32.94611 | -8.67283 | 37838 ft | 465 kts | 48° |
| 2026-04-27 16:29 | 33.05851 | -8.53482 | 37849 ft | 465 kts | 48° |
| 2026-04-27 16:30 | 33.14825 | -8.42423 | 37836 ft | 465 kts | 48° |
| 2026-04-27 16:31 | 33.22081 | -8.34793 | 37864 ft | 466 kts | 33° |
| 2026-04-27 16:31 | 33.27582 | -8.30585 | 37823 ft | 471 kts | 34° |
| 2026-04-27 16:32 | 33.35887 | -8.24311 | 37828 ft | 473 kts | 34° |
| 2026-04-27 16:33 | 33.44231 | -8.18010 | 37846 ft | 471 kts | 33° |
| 2026-04-27 16:33 | 33.49749 | -8.13834 | 37830 ft | 468 kts | 33° |
| 2026-04-27 16:34 | 33.55263 | -8.09655 | 37830 ft | 469 kts | 33° |
| 2026-04-27 16:34 | 33.60736 | -8.05501 | 37824 ft | 469 kts | 33° |
| 2026-04-27 16:35 | 33.66246 | -8.01312 | 37809 ft | 469 kts | 33° |
| 2026-04-27 16:36 | 33.74502 | -7.95024 | 37823 ft | 468 kts | 33° |
| 2026-04-27 16:36 | 33.80000 | -7.90828 | 37821 ft | 468 kts | 33° |
| 2026-04-27 16:37 | 33.85461 | -7.86654 | 37814 ft | 468 kts | 33° |
| 2026-04-27 16:37 | 33.90953 | -7.82450 | 37829 ft | 468 kts | 33° |
| 2026-04-27 16:38 | 33.96445 | -7.78240 | 37834 ft | 468 kts | 33° |
| 2026-04-27 16:38 | 34.01934 | -7.74025 | 37824 ft | 467 kts | 33° |
| 2026-04-27 16:39 | 34.07413 | -7.69811 | 37829 ft | 467 kts | 33° |
| 2026-04-27 16:39 | 34.12857 | -7.65618 | 37833 ft | 467 kts | 33° |
| 2026-04-27 16:40 | 34.18333 | -7.61394 | 37830 ft | 467 kts | 34° |
| 2026-04-27 16:40 | 34.23812 | -7.57160 | 37820 ft | 468 kts | 34° |
| 2026-04-27 16:41 | 34.29309 | -7.52906 | 37812 ft | 469 kts | 34° |
| 2026-04-27 16:41 | 34.34764 | -7.48678 | 37839 ft | 469 kts | 34° |
| 2026-04-27 16:42 | 34.40256 | -7.44415 | 37823 ft | 469 kts | 34° |
| 2026-04-27 16:42 | 34.45744 | -7.40148 | 37829 ft | 469 kts | 34° |
| 2026-04-27 16:43 | 34.51232 | -7.35873 | 37829 ft | 469 kts | 34° |
| 2026-04-27 16:43 | 34.56679 | -7.31625 | 37829 ft | 468 kts | 34° |
| 2026-04-27 16:44 | 34.62154 | -7.27348 | 37839 ft | 468 kts | 34° |
| 2026-04-27 16:44 | 34.67631 | -7.23062 | 37834 ft | 468 kts | 34° |
| 2026-04-27 16:45 | 34.73109 | -7.18768 | 37841 ft | 470 kts | 34° |
| 2026-04-27 16:45 | 34.78569 | -7.14483 | 37823 ft | 470 kts | 34° |
| 2026-04-27 16:46 | 34.84054 | -7.10171 | 37818 ft | 469 kts | 34° |
| 2026-04-27 16:46 | 34.89529 | -7.05858 | 37838 ft | 469 kts | 34° |
| 2026-04-27 16:47 | 34.95001 | -7.01542 | 37841 ft | 469 kts | 34° |
| 2026-04-27 16:47 | 35.00436 | -6.97248 | 37832 ft | 468 kts | 34° |
| 2026-04-27 16:48 | 35.05904 | -6.92922 | 37836 ft | 468 kts | 34° |
| 2026-04-27 16:48 | 35.11365 | -6.88593 | 37835 ft | 468 kts | 34° |
| 2026-04-27 16:49 | 35.19550 | -6.82095 | 37821 ft | 468 kts | 34° |
| 2026-04-27 16:49 | 35.24983 | -6.77772 | 37826 ft | 470 kts | 34° |
| 2026-04-27 16:50 | 35.30456 | -6.73412 | 37835 ft | 469 kts | 34° |
| 2026-04-27 16:50 | 35.35265 | -6.68164 | 37801 ft | 462 kts | 59° |
| 2026-04-27 16:51 | 35.38658 | -6.61447 | 37802 ft | 465 kts | 61° |
| 2026-04-27 16:51 | 35.41939 | -6.54680 | 37829 ft | 465 kts | 62° |
| 2026-04-27 16:52 | 35.45268 | -6.47872 | 37813 ft | 466 kts | 60° |
| 2026-04-27 16:52 | 35.48699 | -6.41133 | 37826 ft | 467 kts | 60° |
| 2026-04-27 16:53 | 35.52122 | -6.34360 | 37815 ft | 467 kts | 60° |
| 2026-04-27 16:53 | 35.55519 | -6.27627 | 37820 ft | 467 kts | 60° |
| 2026-04-27 16:54 | 35.58930 | -6.20850 | 37827 ft | 467 kts | 60° |
| 2026-04-27 16:54 | 35.62349 | -6.14046 | 37850 ft | 470 kts | 60° |
| 2026-04-27 16:55 | 35.65787 | -6.07189 | 37844 ft | 471 kts | 61° |
| 2026-04-27 16:55 | 35.69225 | -6.00318 | 37865 ft | 472 kts | 61° |
| 2026-04-27 16:56 | 35.72642 | -5.93478 | 37863 ft | 472 kts | 61° |
| 2026-04-27 16:56 | 35.75620 | -5.86305 | 37891 ft | 470 kts | 67° |
| 2026-04-27 16:57 | 35.78477 | -5.79064 | 37856 ft | 469 kts | 67° |
| 2026-04-27 16:57 | 35.81320 | -5.71812 | 37868 ft | 470 kts | 67° |
| 2026-04-27 16:58 | 35.84185 | -5.64620 | 37879 ft | 471 kts | 66° |
| 2026-04-27 16:58 | 35.87112 | -5.57399 | 37961 ft | 471 kts | 66° |
| 2026-04-27 16:59 | 35.90031 | -5.50166 | 37973 ft | 472 kts | 66° |
| 2026-04-27 16:59 | 35.92944 | -5.42933 | 37985 ft | 471 kts | 66° |
| 2026-04-27 17:00 | 35.97307 | -5.32069 | 37984 ft | 471 kts | 66° |
| 2026-04-27 17:01 | 36.00189 | -5.24903 | 37996 ft | 468 kts | 64° |
| 2026-04-27 17:01 | 36.03191 | -5.17769 | 37993 ft | 468 kts | 64° |
| 2026-04-27 17:02 | 36.06179 | -5.10622 | 37992 ft | 468 kts | 64° |
| 2026-04-27 17:02 | 36.09162 | -5.03470 | 37991 ft | 468 kts | 64° |
| 2026-04-27 17:03 | 36.12119 | -4.96364 | 37993 ft | 468 kts | 65° |
| 2026-04-27 17:03 | 36.15265 | -4.89314 | 37985 ft | 470 kts | 52° |
| 2026-04-27 17:04 | 36.19723 | -4.83385 | 37974 ft | 473 kts | 47° |
| 2026-04-27 17:04 | 36.24245 | -4.77486 | 38012 ft | 473 kts | 47° |
| 2026-04-27 17:05 | 36.28763 | -4.71641 | 38008 ft | 472 kts | 47° |
| 2026-04-27 17:05 | 36.33309 | -4.65756 | 38013 ft | 472 kts | 47° |
| 2026-04-27 17:06 | 36.37852 | -4.59864 | 38017 ft | 472 kts | 47° |
| 2026-04-27 17:06 | 36.42392 | -4.53965 | 38020 ft | 473 kts | 46° |
| 2026-04-27 17:07 | 36.46937 | -4.48050 | 38030 ft | 473 kts | 46° |
| 2026-04-27 17:07 | 36.51444 | -4.42173 | 38026 ft | 473 kts | 46° |
| 2026-04-27 17:08 | 36.55980 | -4.36247 | 38023 ft | 473 kts | 47° |
| 2026-04-27 17:08 | 36.60511 | -4.30317 | 38024 ft | 473 kts | 47° |
| 2026-04-27 17:09 | 36.65040 | -4.24379 | 38025 ft | 473 kts | 47° |
| 2026-04-27 17:09 | 36.69537 | -4.18473 | 38027 ft | 473 kts | 47° |
| 2026-04-27 17:10 | 36.74064 | -4.12515 | 38031 ft | 473 kts | 47° |
| 2026-04-27 17:10 | 36.78586 | -4.06553 | 38027 ft | 473 kts | 47° |
| 2026-04-27 17:11 | 36.83105 | -4.00585 | 38028 ft | 473 kts | 47° |
| 2026-04-27 17:11 | 36.89849 | -3.91659 | 38015 ft | 473 kts | 47° |
| 2026-04-27 17:12 | 36.96614 | -3.82679 | 37995 ft | 473 kts | 47° |
| 2026-04-27 17:13 | 37.01119 | -3.76683 | 37977 ft | 473 kts | 46° |
| 2026-04-27 17:13 | 37.05624 | -3.70681 | 38011 ft | 473 kts | 46° |
| 2026-04-27 17:14 | 37.10097 | -3.64714 | 38007 ft | 473 kts | 46° |
| 2026-04-27 17:14 | 37.14657 | -3.58781 | 38004 ft | 473 kts | 46° |
| 2026-04-27 17:15 | 37.19244 | -3.52861 | 38003 ft | 473 kts | 45° |
| 2026-04-27 17:15 | 37.23820 | -3.46943 | 38005 ft | 473 kts | 45° |
| 2026-04-27 17:16 | 37.28364 | -3.41054 | 37990 ft | 473 kts | 45° |
| 2026-04-27 17:16 | 37.32937 | -3.35116 | 38003 ft | 473 kts | 45° |
| 2026-04-27 17:17 | 37.37510 | -3.29169 | 38001 ft | 473 kts | 45° |
| 2026-04-27 17:17 | 37.42077 | -3.23218 | 37993 ft | 473 kts | 45° |
| 2026-04-27 17:18 | 37.48885 | -3.14325 | 37993 ft | 472 kts | 45° |
| 2026-04-27 17:18 | 37.53441 | -3.08361 | 37992 ft | 472 kts | 45° |
| 2026-04-27 17:19 | 37.57989 | -3.02397 | 37992 ft | 472 kts | 45° |
| 2026-04-27 17:19 | 37.62537 | -2.96421 | 38001 ft | 472 kts | 45° |
| 2026-04-27 17:20 | 37.67081 | -2.90441 | 38000 ft | 472 kts | 45° |
| 2026-04-27 17:20 | 37.71587 | -2.84499 | 38015 ft | 471 kts | 45° |
| 2026-04-27 17:21 | 37.76114 | -2.78518 | 38015 ft | 471 kts | 45° |
| 2026-04-27 17:21 | 37.80636 | -2.72533 | 38030 ft | 471 kts | 45° |
| 2026-04-27 17:22 | 37.85159 | -2.66535 | 38020 ft | 471 kts | 45° |
| 2026-04-27 17:22 | 37.89647 | -2.60572 | 38034 ft | 471 kts | 45° |
| 2026-04-27 17:23 | 37.94162 | -2.54563 | 38056 ft | 471 kts | 45° |
| 2026-04-27 17:23 | 37.98666 | -2.48555 | 38049 ft | 470 kts | 45° |
| 2026-04-27 17:24 | 38.03165 | -2.42543 | 38056 ft | 470 kts | 45° |
| 2026-04-27 17:24 | 38.07632 | -2.36564 | 38051 ft | 470 kts | 46° |
| 2026-04-27 17:25 | 38.12125 | -2.30537 | 38049 ft | 470 kts | 46° |
| 2026-04-27 17:25 | 38.16616 | -2.24502 | 38059 ft | 470 kts | 45° |
| 2026-04-27 17:26 | 38.21584 | -2.19261 | 38033 ft | 460 kts | 22° |
| 2026-04-27 17:26 | 38.27669 | -2.16886 | 38036 ft | 460 kts | 12° |
| 2026-04-27 17:27 | 38.33818 | -2.14906 | 38039 ft | 459 kts | 11° |
| 2026-04-27 17:27 | 38.36926 | -2.13942 | 37897 ft | 459 kts | 11° |
| 2026-04-27 17:27 | 38.40022 | -2.12990 | 37838 ft | 457 kts | 11° |
| 2026-04-27 17:28 | 38.46217 | -2.11089 | 37839 ft | 459 kts | 11° |
| 2026-04-27 17:28 | 38.52170 | -2.07748 | 35750 ft | 477 kts | 38° |
| 2026-04-27 17:29 | 38.54511 | -2.04819 | 35497 ft | 467 kts | 48° |
| 2026-04-27 17:29 | 38.56593 | -2.01715 | 34785 ft | 468 kts | 50° |
| 2026-04-27 17:29 | 38.58669 | -1.98474 | 33922 ft | 473 kts | 51° |
| 2026-04-27 17:29 | 38.60732 | -1.95177 | 33067 ft | 475 kts | 51° |
| 2026-04-27 17:30 | 38.62783 | -1.91855 | 32202 ft | 477 kts | 51° |
| 2026-04-27 17:30 | 38.66884 | -1.85152 | 30573 ft | 479 kts | 51° |
| 2026-04-27 17:30 | 38.68936 | -1.81785 | 29711 ft | 480 kts | 51° |
| 2026-04-27 17:31 | 38.70983 | -1.78423 | 28517 ft | 477 kts | 51° |
| 2026-04-27 17:31 | 38.73001 | -1.75105 | 26967 ft | 480 kts | 51° |
| 2026-04-27 17:31 | 38.75055 | -1.71722 | 25354 ft | 483 kts | 51° |
| 2026-04-27 17:31 | 38.77123 | -1.68314 | 23791 ft | 486 kts | 52° |
| 2026-04-27 17:32 | 38.79198 | -1.64891 | 22220 ft | 485 kts | 52° |
| 2026-04-27 17:32 | 38.83134 | -1.58388 | 22173 ft | 408 kts | 51° |
| 2026-04-27 17:32 | 38.84807 | -1.55733 | 22723 ft | 372 kts | 51° |
| 2026-04-27 17:33 | 38.86432 | -1.53067 | 21307 ft | 389 kts | 53° |
| 2026-04-27 17:33 | 38.88080 | -1.50262 | 20320 ft | 397 kts | 52° |
| 2026-04-27 17:33 | 38.89769 | -1.47420 | 19481 ft | 405 kts | 53° |
| 2026-04-27 17:33 | 38.91480 | -1.44562 | 18771 ft | 411 kts | 53° |
| 2026-04-27 17:34 | 38.93223 | -1.41661 | 18208 ft | 410 kts | 53° |
| 2026-04-27 17:34 | 38.94961 | -1.38768 | 17662 ft | 408 kts | 53° |
| 2026-04-27 17:34 | 38.96690 | -1.35890 | 17152 ft | 405 kts | 53° |
| 2026-04-27 17:34 | 38.98402 | -1.33036 | 16662 ft | 402 kts | 53° |
| 2026-04-27 17:35 | 39.00106 | -1.30198 | 16183 ft | 399 kts | 53° |
| 2026-04-27 17:35 | 39.01789 | -1.27388 | 15708 ft | 396 kts | 53° |
| 2026-04-27 17:35 | 39.03472 | -1.24575 | 15168 ft | 396 kts | 53° |
| 2026-04-27 17:35 | 39.05118 | -1.21822 | 14720 ft | 393 kts | 53° |
| 2026-04-27 17:36 | 39.06778 | -1.19042 | 14286 ft | 390 kts | 53° |
| 2026-04-27 17:36 | 39.08426 | -1.16281 | 13818 ft | 388 kts | 53° |
| 2026-04-27 17:36 | 39.10063 | -1.13537 | 13306 ft | 385 kts | 53° |
| 2026-04-27 17:36 | 39.11899 | -1.11054 | 12782 ft | 384 kts | 38° |
| 2026-04-27 17:37 | 39.14185 | -1.09279 | 12290 ft | 382 kts | 31° |
| 2026-04-27 17:37 | 39.16407 | -1.07504 | 11647 ft | 371 kts | 33° |
| 2026-04-27 17:37 | 39.18574 | -1.05763 | 10727 ft | 371 kts | 33° |
| 2026-04-27 17:37 | 39.20742 | -1.04030 | 10122 ft | 360 kts | 33° |
| 2026-04-27 17:38 | 39.22814 | -1.02377 | 9833 ft | 341 kts | 33° |
| 2026-04-27 17:38 | 39.24784 | -1.00807 | 9485 ft | 325 kts | 32° |
| 2026-04-27 17:38 | 39.26666 | -0.99304 | 9136 ft | 312 kts | 33° |
| 2026-04-27 17:38 | 39.28473 | -0.97861 | 8805 ft | 299 kts | 33° |
| 2026-04-27 17:39 | 39.30219 | -0.96464 | 8487 ft | 294 kts | 33° |
| 2026-04-27 17:39 | 39.31950 | -0.95077 | 8178 ft | 292 kts | 34° |
| 2026-04-27 17:39 | 39.33669 | -0.93696 | 7861 ft | 290 kts | 33° |
| 2026-04-27 17:39 | 39.35375 | -0.92327 | 7549 ft | 288 kts | 34° |
| 2026-04-27 17:40 | 39.37047 | -0.90984 | 7248 ft | 286 kts | 34° |
| 2026-04-27 17:40 | 39.38729 | -0.89632 | 6956 ft | 283 kts | 34° |
| 2026-04-27 17:40 | 39.40400 | -0.88289 | 6646 ft | 283 kts | 35° |
| 2026-04-27 17:40 | 39.42066 | -0.86948 | 6330 ft | 282 kts | 35° |
| 2026-04-27 17:41 | 39.43727 | -0.85610 | 5977 ft | 280 kts | 34° |
| 2026-04-27 17:41 | 39.45358 | -0.84300 | 5609 ft | 272 kts | 35° |
| 2026-04-27 17:41 | 39.46947 | -0.83021 | 5307 ft | 267 kts | 35° |
| 2026-04-27 17:41 | 39.48509 | -0.81760 | 5141 ft | 261 kts | 35° |
| 2026-04-27 17:42 | 39.50011 | -0.80548 | 5013 ft | 255 kts | 35° |
| 2026-04-27 17:42 | 39.51499 | -0.79346 | 4879 ft | 249 kts | 35° |
| 2026-04-27 17:42 | 39.52954 | -0.78171 | 4727 ft | 244 kts | 34° |
| 2026-04-27 17:42 | 39.54376 | -0.77023 | 4586 ft | 237 kts | 35° |
| 2026-04-27 17:43 | 39.55756 | -0.75906 | 4447 ft | 231 kts | 34° |
| 2026-04-27 17:43 | 39.56959 | -0.74567 | 4142 ft | 229 kts | 57° |
| 2026-04-27 17:43 | 39.57519 | -0.72667 | 3858 ft | 227 kts | 85° |
| 2026-04-27 17:43 | 39.57374 | -0.70652 | 3605 ft | 225 kts | 106° |
| 2026-04-27 17:44 | 39.56795 | -0.68804 | 3348 ft | 225 kts | 115° |
| 2026-04-27 17:44 | 39.56092 | -0.67001 | 3068 ft | 224 kts | 116° |
| 2026-04-27 17:44 | 39.55405 | -0.65210 | 2822 ft | 221 kts | 115° |
| 2026-04-27 17:44 | 39.54735 | -0.63445 | 2561 ft | 214 kts | 115° |
| 2026-04-27 17:45 | 39.54085 | -0.61730 | 2237 ft | 209 kts | 116° |
| 2026-04-27 17:45 | 39.53457 | -0.60077 | 1981 ft | 200 kts | 115° |
| 2026-04-27 17:45 | 39.52855 | -0.58488 | 1714 ft | 190 kts | 116° |
| 2026-04-27 17:45 | 39.52311 | -0.57057 | 1459 ft | 166 kts | 116° |
| 2026-04-27 17:46 | 39.51832 | -0.55793 | 1261 ft | 148 kts | 115° |
| 2026-04-27 17:46 | 39.51389 | -0.54627 | 1040 ft | 146 kts | 115° |
| 2026-04-27 17:46 | 39.50944 | -0.53439 | 844 ft | 146 kts | 116° |
| 2026-04-27 17:46 | 39.50490 | -0.52272 | 662 ft | 145 kts | 117° |
| 2026-04-27 17:47 | 39.50054 | -0.51117 | 472 ft | 141 kts | 116° |
| 2026-04-27 17:47 | 39.49766 | -0.50358 | 336 ft | 142 kts | 117° |
| 2026-04-27 17:47 | 39.49213 | -0.48904 | 222 ft | 112 kts | 116° |
| 2026-04-27 17:47 | 39.48975 | -0.48276 | 210 ft | 58 kts | 116° |
| 2026-04-27 17:48 | 39.48829 | -0.47894 | 208 ft | 40 kts | 116° |
| 2026-04-27 17:48 | 39.48738 | -0.47656 | 206 ft | 26 kts | 115° |
| 2026-04-27 17:48 | 39.48659 | -0.47435 | 205 ft | 25 kts | 109° |
| 2026-04-27 17:48 | 39.48663 | -0.47264 | 198 ft | 18 kts | 69° |
| 2026-04-27 17:49 | 39.48757 | -0.47179 | 187 ft | 17 kts | 357° |
| 2026-04-27 17:49 | 39.48830 | -0.47211 | 197 ft | 10 kts | 335° |
| 2026-04-27 17:49 | 39.48901 | -0.47248 | 195 ft | 12 kts | 329° |
| 2026-04-27 17:49 | 39.48942 | -0.47309 | 196 ft | 3 kts | 354° |
| 2026-04-27 17:50 | 39.48966 | -0.47304 | 193 ft | 4 kts | 11° |
| 2026-04-27 17:50 | 39.49026 | -0.47286 | 193 ft | 2 kts | 13° |
| 2026-04-27 17:50 | 39.49033 | -0.47284 | 193 ft | 0 kts | 13° |